Time;durP1;ratioP1;P1;durP2;ratioP2;P2;SDS_P1;SDS_P2;PMS_P1;PMS_P2;Temp;Humidity;BMP_temperature;BMP_pressure;BME280_temperature;BME280_humidity;BME280_pressure;Samples;Min_cycle;Max_cycle;Signal;HPM_P1;HPM_P2
2022/01/07 00:00:54;;;;;;;;;;;;;;;;;;5084560;28;1235;-79
2022/01/07 00:03:19;;;;;;;;;;;;;;;;;;5087332;28;1129;-80
2022/01/07 00:05:47;;;;;;;;;;;;;;;;;;5085969;28;1069;-80
2022/01/07 00:08:13;;;;;;;;;;;;;;;;;;5087564;28;1188;-79
2022/01/07 00:10:38;;;;;;;;;;;;;;;;;;5050910;28;1303;-80
2022/01/07 00:13:03;;;;;;;;;;;;;;;;;;5083817;28;1218;-80
2022/01/07 00:15:37;;;;;;;;;;;;;;;;;;5068300;28;1161;-79
2022/01/07 00:18:02;;;;;;;;;;;;;;;;;;5050355;28;1959;-80
2022/01/07 00:20:37;;;;;;;;;;;;;;;;;;5087543;28;1228;-80
2022/01/07 00:23:02;;;;;;;;;;;;;;;;;;5066669;28;1257;-79
2022/01/07 00:25:31;;;;;;;;;;;;;;;;;;5057437;28;1134;-80
2022/01/07 00:27:56;;;;;;;;;;;;;;;;;;5066467;28;1297;-80
2022/01/07 00:30:22;;;;;;;;;;;;;;;;;;5086259;28;1180;-79
2022/01/07 00:32:47;;;;;;;;;;;;;;;;;;5064713;28;1153;-80
2022/01/07 00:35:14;;;;;;;;;;;;;;;;;;5088038;28;1058;-79
2022/01/07 00:37:39;;;;;;;;;;;;;;;;;;5064582;28;1383;-81
2022/01/07 00:40:05;;;;;;;;;;;;;;;;;;5068761;28;1890;-80
2022/01/07 00:42:37;;;;;;;;;;;;;;;;;;5065533;28;1227;-80
2022/01/07 00:45:03;;;;;;;;;;;;;;;;;;5059839;28;1251;-81
2022/01/07 00:47:28;;;;;;;;;;;;;;;;;;5087145;28;1149;-81
2022/01/07 00:49:54;;;;;;;;;;;;;;;;;;5067646;28;1229;-80
2022/01/07 00:52:19;;;;;;;;;;;;;;;;;;5090951;28;1370;-81
2022/01/07 00:54:44;;;;;;;;;;;;;;;;;;5076207;28;1181;-81
2022/01/07 00:57:10;;;;;;;;;;;;;;;;;;5077772;28;1141;-81
2022/01/07 00:59:39;;;;;;;;;;;;;;;;;;5066882;28;1886;-81
2022/01/07 01:02:04;;;;;;;;;;;;;;;;;;5087045;28;1220;-81
2022/01/07 01:04:30;;;;;;;;;;;;;;;;;;5067590;28;1220;-80
2022/01/07 01:06:55;;;;;;;;;;;;;;;;;;5064140;28;1176;-80
2022/01/07 01:09:20;;;;;;;;;;;;;;;;;;5066953;28;1246;-81
2022/01/07 01:11:46;;;;;;;;;;;;;;;;;;5044873;28;1292;-80
2022/01/07 01:14:11;;;;;;;;;;;;;;;;;;5082356;28;1239;-81
2022/01/07 01:16:39;;;;;;;;;;;;;;;;;;5064641;28;1232;-81
2022/01/07 01:19:05;;;;;;;;;;;;;;;;;;5066607;28;1965;-80
2022/01/07 01:21:32;;;;;;;;;;;;;;;;;;5082847;28;1121;-79
2022/01/07 01:23:57;;;;;;;;;;;;;;;;;;5063303;28;1097;-79
2022/01/07 01:26:22;;;;;;;;;;;;;;;;;;5062547;28;1216;-79
2022/01/07 01:28:47;;;;;;;;;;;;;;;;;;5081079;28;1220;-80
2022/01/07 01:31:15;;;;;;;;;;;;;;;;;;5066865;28;1148;-79
2022/01/07 01:33:44;;;;;;;;;;;;;;;;;;5083413;28;1215;-80
2022/01/07 01:36:09;;;;;;;;;;;;;;;;;;5083452;28;1270;-80
2022/01/07 01:38:45;;;;;;;;;;;;;;;;;;5066937;28;1885;-80
2022/01/07 01:41:10;;;;;;;;;;;;;;;;;;5061047;28;1117;-79
2022/01/07 01:43:42;;;;;;;;;;;;;;;;;;5083005;28;1273;-79
2022/01/07 01:46:07;;;;;;;;;;;;;;;;;;5064888;28;1235;-79
2022/01/07 01:48:33;;;;;;;;;;;;;;;;;;5084715;28;1203;-78
2022/01/07 01:50:58;;;;;;;;;;;;;;;;;;5046179;28;1244;-79
2022/01/07 01:53:27;;;;;;;;;;;;;;;;;;5079900;28;1203;-79
2022/01/07 01:55:58;;;;;;;;;;;;;;;;;;5065277;28;1190;-79
2022/01/07 01:58:24;;;;;;;;;;;;;;;;;;5082449;28;1878;-79
2022/01/07 02:00:49;;;;;;;;;;;;;;;;;;5082465;28;1231;-79
2022/01/07 02:03:14;;;;;;;;;;;;;;;;;;5049374;28;1197;-78
2022/01/07 02:05:55;;;;;;;;;;;;;;;;;;5085585;28;1164;-79
2022/01/07 02:08:23;;;;;;;;;;;;;;;;;;5065637;28;1200;-80
2022/01/07 02:10:58;;;;;;;;;;;;;;;;;;5083194;28;1109;-79
2022/01/07 02:13:23;;;;;;;;;;;;;;;;;;5064955;28;1143;-80
2022/01/07 02:15:49;;;;;;;;;;;;;;;;;;5064333;28;1387;-79
2022/01/07 02:18:16;;;;;;;;;;;;;;;;;;5063348;28;1902;-79
2022/01/07 02:20:48;;;;;;;;;;;;;;;;;;5065379;28;1271;-79
2022/01/07 02:23:14;;;;;;;;;;;;;;;;;;5084114;28;1161;-79
2022/01/07 02:25:59;;;;;;;;;;;;;;;;;;5083820;28;1193;-80
2022/01/07 02:28:25;;;;;;;;;;;;;;;;;;5063407;28;1273;-79
2022/01/07 02:30:54;;;;;;;;;;;;;;;;;;5082123;28;1106;-79
2022/01/07 02:33:19;;;;;;;;;;;;;;;;;;5065167;28;1125;-80
2022/01/07 02:35:50;;;;;;;;;;;;;;;;;;5084053;28;1120;-79
2022/01/07 02:38:16;;;;;;;;;;;;;;;;;;5063955;28;1889;-79
2022/01/07 02:41:01;;;;;;;;;;;;;;;;;;5066324;28;1188;-79
2022/01/07 02:43:30;;;;;;;;;;;;;;;;;;5060303;28;1367;-79
2022/01/07 02:45:55;;;;;;;;;;;;;;;;;;5063167;28;1333;-80
2022/01/07 02:48:20;;;;;;;;;;;;;;;;;;5065156;28;1121;-80
2022/01/07 02:51:01;;;;;;;;;;;;;;;;;;5063846;28;1216;-80
2022/01/07 02:53:26;;;;;;;;;;;;;;;;;;5082290;28;1052;-80
2022/01/07 02:55:58;;;;;;;;;;;;;;;;;;5080067;28;1149;-80
2022/01/07 02:58:23;;;;;;;;;;;;;;;;;;5062706;28;1898;-80
2022/01/07 03:00:54;;;;;;;;;;;;;;;;;;5082336;28;1227;-79
2022/01/07 03:03:20;;;;;;;;;;;;;;;;;;5065069;28;1328;-80
2022/01/07 03:05:54;;;;;;;;;;;;;;;;;;5064276;28;1275;-80
2022/01/07 03:08:19;;;;;;;;;;;;;;;;;;5066224;28;1142;-80
2022/01/07 03:10:57;;;;;;;;;;;;;;;;;;5082418;28;1227;-80
2022/01/07 03:13:23;;;;;;;;;;;;;;;;;;5062100;28;1221;-79
2022/01/07 03:15:54;;;;;;;;;;;;;;;;;;5057984;28;1364;-79
2022/01/07 03:18:19;;;;;;;;;;;;;;;;;;5081461;28;1929;-79
2022/01/07 03:20:48;;;;;;;;;;;;;;;;;;5085522;28;1130;-78
2022/01/07 03:23:13;;;;;;;;;;;;;;;;;;5074147;28;1410;-79
2022/01/07 03:25:39;;;;;;;;;;;;;;;;;;5071313;28;1232;-79
2022/01/07 03:28:04;;;;;;;;;;;;;;;;;;5081427;28;1118;-79
2022/01/07 03:30:30;;;;;;;;;;;;;;;;;;5068474;28;1383;-79
2022/01/07 03:32:55;;;;;;;;;;;;;;;;;;5061867;28;1162;-79
2022/01/07 03:35:23;;;;;;;;;;;;;;;;;;5067217;28;1192;-80
2022/01/07 03:37:55;;;;;;;;;;;;;;;;;;5065394;28;1197;-82
2022/01/07 03:40:23;;;;;;;;;;;;;;;;;;5087311;28;1270;-79
2022/01/07 03:42:55;;;;;;;;;;;;;;;;;;5063885;28;1278;-80
2022/01/07 03:45:23;;;;;;;;;;;;;;;;;;5066995;28;1243;-80
2022/01/07 03:47:55;;;;;;;;;;;;;;;;;;5083874;28;1200;-80
2022/01/07 03:50:22;;;;;;;;;;;;;;;;;;5067924;28;1140;-80
2022/01/07 03:52:57;;;;;;;;;;;;;;;;;;5086151;28;1337;-80
2022/01/07 03:55:24;;;;;;;;;;;;;;;;;;5065761;28;1184;-80
2022/01/07 03:57:56;;;;;;;;;;;;;;;;;;5082493;28;1149;-80
2022/01/07 04:00:23;;;;;;;;;;;;;;;;;;5084282;28;1172;-80
2022/01/07 04:02:52;;;;;;;;;;;;;;;;;;5083778;28;1244;-80
2022/01/07 04:05:21;;;;;;;;;;;;;;;;;;5067754;28;1450;-81
2022/01/07 04:07:46;;;;;;;;;;;;;;;;;;5067424;28;1340;-80
2022/01/07 04:10:12;;;;;;;;;;;;;;;;;;5067311;28;1173;-80
2022/01/07 04:12:37;;;;;;;;;;;;;;;;;;5064793;28;1245;-80
2022/01/07 04:15:08;;;;;;;;;;;;;;;;;;5071920;28;1467;-81
2022/01/07 04:17:34;;;;;;;;;;;;;;;;;;5074527;28;1148;-81
2022/01/07 04:19:59;;;;;;;;;;;;;;;;;;5066274;28;1933;-80
2022/01/07 04:22:25;;;;;;;;;;;;;;;;;;5087053;28;1228;-80
2022/01/07 04:24:59;;;;;;;;;;;;;;;;;;5068930;28;1180;-80
2022/01/07 04:27:24;;;;;;;;;;;;;;;;;;5067887;28;1176;-80
2022/01/07 04:29:49;;;;;;;;;;;;;;;;;;5047905;28;1167;-80
2022/01/07 04:32:14;;;;;;;;;;;;;;;;;;5049072;28;1326;-81
2022/01/07 04:34:40;;;;;;;;;;;;;;;;;;5066590;28;1156;-80
2022/01/07 04:37:05;;;;;;;;;;;;;;;;;;5066640;28;1149;-80
2022/01/07 04:39:30;;;;;;;;;;;;;;;;;;5068005;28;1979;-81
2022/01/07 04:41:59;;;;;;;;;;;;;;;;;;5073717;28;1140;-81
2022/01/07 04:44:25;;;;;;;;;;;;;;;;;;5044526;28;1299;-80
2022/01/07 04:46:59;;;;;;;;;;;;;;;;;;5067683;28;1145;-81
2022/01/07 04:49:24;;;;;;;;;;;;;;;;;;5084858;28;1188;-81
2022/01/07 04:52:03;;;;;;;;;;;;;;;;;;5049468;28;1349;-81
2022/01/07 04:54:28;;;;;;;;;;;;;;;;;;5066350;28;1221;-81
2022/01/07 04:57:00;;;;;;;;;;;;;;;;;;5061503;28;1187;-81
2022/01/07 04:59:26;;;;;;;;;;;;;;;;;;5064374;28;1921;-81
2022/01/07 05:01:51;;;;;;;;;;;;;;;;;;5067004;28;1287;-80
2022/01/07 05:04:17;;;;;;;;;;;;;;;;;;5082621;28;1196;-82
2022/01/07 05:06:45;;;;;;;;;;;;;;;;;;5057050;28;1342;-81
2022/01/07 05:09:17;;;;;;;;;;;;;;;;;;5083948;28;1153;-80
2022/01/07 05:11:43;;;;;;;;;;;;;;;;;;5064471;28;1531;-81
2022/01/07 05:14:08;;;;;;;;;;;;;;;;;;5062451;28;1357;-80
2022/01/07 05:16:33;;;;;;;;;;;;;;;;;;5064214;28;1343;-81
2022/01/07 05:19:05;;;;;;;;;;;;;;;;;;5064962;28;1996;-81
2022/01/07 05:21:30;;;;;;;;;;;;;;;;;;5065524;28;1239;-81
2022/01/07 05:24:02;;;;;;;;;;;;;;;;;;5063034;28;1255;-81
2022/01/07 05:26:27;;;;;;;;;;;;;;;;;;5064062;28;1442;-81
2022/01/07 05:28:53;;;;;;;;;;;;;;;;;;5082415;28;1207;-81
2022/01/07 05:31:19;;;;;;;;;;;;;;;;;;5082362;28;1156;-80
2022/01/07 05:33:44;;;;;;;;;;;;;;;;;;5068582;28;1224;-81
2022/01/07 05:36:09;;;;;;;;;;;;;;;;;;5048655;28;1212;-81
2022/01/07 05:38:35;;;;;;;;;;;;;;;;;;5064646;28;1983;-80
2022/01/07 05:41:03;;;;;;;;;;;;;;;;;;5079738;28;1200;-81
2022/01/07 05:43:29;;;;;;;;;;;;;;;;;;5046821;28;1374;-80
2022/01/07 05:45:55;;;;;;;;;;;;;;;;;;5061250;28;1149;-80
2022/01/07 05:48:23;;;;;;;;;;;;;;;;;;5063493;28;1085;-81
2022/01/07 05:50:48;;;;;;;;;;;;;;;;;;5066376;28;1141;-80
2022/01/07 05:53:13;;;;;;;;;;;;;;;;;;5064323;28;1185;-80
2022/01/07 05:55:39;;;;;;;;;;;;;;;;;;5047713;28;1200;-80
2022/01/07 05:58:04;;;;;;;;;;;;;;;;;;5058571;28;1931;-81
2022/01/07 06:00:29;;;;;;;;;;;;;;;;;;5067302;28;1053;-80
2022/01/07 06:02:55;;;;;;;;;;;;;;;;;;5066040;28;1415;-80
2022/01/07 06:05:20;;;;;;;;;;;;;;;;;;5078280;28;1254;-80
2022/01/07 06:07:46;;;;;;;;;;;;;;;;;;5063907;28;1141;-81
2022/01/07 06:10:11;;;;;;;;;;;;;;;;;;5066042;28;1205;-81
2022/01/07 06:12:36;;;;;;;;;;;;;;;;;;5062982;28;1239;-81
2022/01/07 06:15:08;;;;;;;;;;;;;;;;;;5062928;28;1251;-81
2022/01/07 06:17:33;;;;;;;;;;;;;;;;;;5062066;28;1208;-80
2022/01/07 06:19:58;;;;;;;;;;;;;;;;;;5084502;28;1906;-81
2022/01/07 06:22:24;;;;;;;;;;;;;;;;;;5047281;28;1188;-80
2022/01/07 06:24:49;;;;;;;;;;;;;;;;;;5067319;28;1411;-81
2022/01/07 06:27:15;;;;;;;;;;;;;;;;;;5063239;28;1145;-81
2022/01/07 06:29:40;;;;;;;;;;;;;;;;;;5083596;28;1086;-79
2022/01/07 06:32:08;;;;;;;;;;;;;;;;;;5064174;28;1231;-81
2022/01/07 06:34:34;;;;;;;;;;;;;;;;;;5082915;28;1121;-80
2022/01/07 06:36:59;;;;;;;;;;;;;;;;;;5061971;28;1141;-80
2022/01/07 06:39:25;;;;;;;;;;;;;;;;;;5062964;28;1898;-80
2022/01/07 06:41:53;;;;;;;;;;;;;;;;;;5082106;28;1224;-80
2022/01/07 06:44:18;;;;;;;;;;;;;;;;;;5061687;28;1176;-80
2022/01/07 06:46:43;;;;;;;;;;;;;;;;;;5065198;28;1229;-80
2022/01/07 06:49:09;;;;;;;;;;;;;;;;;;5062665;28;1242;-81
2022/01/07 06:51:34;;;;;;;;;;;;;;;;;;5061125;28;1133;-80
2022/01/07 06:53:59;;;;;;;;;;;;;;;;;;5064465;28;1118;-80
2022/01/07 06:56:25;;;;;;;;;;;;;;;;;;5046631;28;1172;-80
2022/01/07 06:58:53;;;;;;;;;;;;;;;;;;5064699;28;1866;-80
2022/01/07 07:01:20;;;;;;;;;;;;;;;;;;5084250;28;1026;-80
2022/01/07 07:03:45;;;;;;;;;;;;;;;;;;5068117;28;1210;-80
2022/01/07 07:06:11;;;;;;;;;;;;;;;;;;5084848;28;1157;-80
2022/01/07 07:08:37;;;;;;;;;;;;;;;;;;5087965;28;1168;-79
2022/01/07 07:11:02;;;;;;;;;;;;;;;;;;5067500;28;1394;-80
2022/01/07 07:13:27;;;;;;;;;;;;;;;;;;5064477;28;1299;-79
2022/01/07 07:15:53;;;;;;;;;;;;;;;;;;5067282;28;1212;-79
2022/01/07 07:18:18;;;;;;;;;;;;;;;;;;5065721;28;1929;-79
2022/01/07 07:20:43;;;;;;;;;;;;;;;;;;5053587;28;1205;-78
2022/01/07 07:23:10;;;;;;;;;;;;;;;;;;5065927;28;1394;-80
2022/01/07 07:25:35;;;;;;;;;;;;;;;;;;5043182;28;1326;-79
2022/01/07 07:28:00;;;;;;;;;;;;;;;;;;5082107;28;1231;-79
2022/01/07 07:30:33;;;;;;;;;;;;;;;;;;5050358;28;1201;-79
2022/01/07 07:33:07;;;;;;;;;;;;;;;;;;5067651;28;1125;-80
2022/01/07 07:38:18;;;;;;;;;;;;;;;;;;5062944;28;1903;-79
2022/01/07 07:40:43;;;;;;;;;;;;;;;;;;5067947;28;1177;-79
2022/01/07 07:43:09;;;;;;;;;;;;;;;;;;5078520;28;1112;-79
2022/01/07 07:45:35;;;;;;;;;;;;;;;;;;5068262;28;1457;-81
2022/01/07 07:48:00;;;;;;;;;;;;;;;;;;5067013;28;1337;-81
2022/01/07 07:50:25;;;;;;;;;;;;;;;;;;5067556;28;1160;-80
2022/01/07 07:52:51;;;;;;;;;;;;;;;;;;5065092;28;1456;-80
2022/01/07 07:55:16;;;;;;;;;;;;;;;;;;5084216;28;1141;-80
2022/01/07 07:57:41;;;;;;;;;;;;;;;;;;5058178;28;1210;-81
2022/01/07 08:00:07;;;;;;;;;;;;;;;;;;5087770;28;1889;-82
2022/01/07 08:02:32;;;;;;;;;;;;;;;;;;5064268;28;1370;-81
2022/01/07 08:04:57;;;;;;;;;;;;;;;;;;5070053;28;1133;-81
2022/01/07 08:07:23;;;;;;;;;;;;;;;;;;5065798;28;1287;-81
2022/01/07 08:09:50;;;;;;;;;;;;;;;;;;5070157;28;1212;-81
2022/01/07 08:12:19;;;;;;;;;;;;;;;;;;5041364;28;1295;-82
2022/01/07 08:17:28;;;;;;;;;;;;;;;;;;5085446;28;1064;-82
2022/01/07 08:19:53;;;;;;;;;;;;;;;;;;5086542;28;1910;-81
2022/01/07 08:22:19;;;;;;;;;;;;;;;;;;5083005;28;1169;-80
2022/01/07 08:24:44;;;;;;;;;;;;;;;;;;5086542;28;1200;-80
2022/01/07 08:27:10;;;;;;;;;;;;;;;;;;5045857;28;1437;-80
2022/01/07 08:29:37;;;;;;;;;;;;;;;;;;5078244;28;1198;-80
2022/01/07 08:34:53;;;;;;;;;;;;;;;;;;5071611;28;1053;-80
2022/01/07 08:37:20;;;;;;;;;;;;;;;;;;5084584;28;1085;-80
2022/01/07 08:39:46;;;;;;;;;;;;;;;;;;5086390;28;1882;-85
2022/01/07 08:42:11;;;;;;;;;;;;;;;;;;5065820;28;1153;-80
2022/01/07 08:44:36;;;;;;;;;;;;;;;;;;5063840;28;1571;-80
2022/01/07 08:47:01;;;;;;;;;;;;;;;;;;5067850;28;1358;-79
2022/01/07 08:49:27;;;;;;;;;;;;;;;;;;5048215;28;1259;-79
2022/01/07 08:51:52;;;;;;;;;;;;;;;;;;5066546;28;1224;-81
2022/01/07 08:54:18;;;;;;;;;;;;;;;;;;5065920;28;1191;-80
2022/01/07 08:56:44;;;;;;;;;;;;;;;;;;5045757;28;1240;-79
2022/01/07 08:59:09;;;;;;;;;;;;;;;;;;5049111;28;1951;-78
2022/01/07 09:01:34;;;;;;;;;;;;;;;;;;5082814;28;1108;-79
2022/01/07 09:04:00;;;;;;;;;;;;;;;;;;5067259;28;1193;-79
2022/01/07 09:06:25;;;;;;;;;;;;;;;;;;5083305;28;1145;-78
2022/01/07 09:08:53;;;;;;;;;;;;;;;;;;5066927;28;1148;-78
2022/01/07 09:11:24;;;;;;;;;;;;;;;;;;5064118;28;1286;-78
2022/01/07 09:13:51;;;;;;;;;;;;;;;;;;5028740;28;1147;-79
2022/01/07 09:16:25;;;;;;;;;;;;;;;;;;5030319;28;1255;-79
2022/01/07 09:18:53;;;;;;;;;;;;;;;;;;5065960;28;1902;-78
2022/01/07 09:21:26;;;;;;;;;;;;;;;;;;5046616;28;1233;-76
2022/01/07 09:23:52;;;;;;;;;;;;;;;;;;5048306;28;1189;-76
2022/01/07 09:26:24;;;;;;;;;;;;;;;;;;5045772;28;1415;-75
2022/01/07 09:28:49;;;;;;;;;;;;;;;;;;5030256;28;1311;-76
2022/01/07 09:31:14;;;;;;;;;;;;;;;;;;5066092;28;1148;-76
2022/01/07 09:33:40;;;;;;;;;;;;;;;;;;5044875;28;1146;-77
2022/01/07 09:36:05;;;;;;;;;;;;;;;;;;5063763;28;1217;-76
2022/01/07 09:38:31;;;;;;;;;;;;;;;;;;5044265;28;1882;-77
2022/01/07 09:40:59;;;;;;;;;;;;;;;;;;5045400;28;1282;-77
2022/01/07 09:43:25;;;;;;;;;;;;;;;;;;5060629;28;1232;-77
2022/01/07 09:46:00;;;;;;;;;;;;;;;;;;5046801;28;1287;-77
2022/01/07 09:48:26;;;;;;;;;;;;;;;;;;5062357;28;1018;-76
2022/01/07 09:50:52;;;;;;;;;;;;;;;;;;5045383;28;1298;-77
2022/01/07 09:53:18;;;;;;;;;;;;;;;;;;5044724;28;1269;-76
2022/01/07 09:55:43;;;;;;;;;;;;;;;;;;5044798;28;1493;-76
2022/01/07 09:58:09;;;;;;;;;;;;;;;;;;5024580;28;1890;-76
2022/01/07 10:00:38;;;;;;;;;;;;;;;;;;5045351;28;1245;-76
2022/01/07 10:03:05;;;;;;;;;;;;;;;;;;5044584;28;1113;-76
2022/01/07 10:05:30;;;;;;;;;;;;;;;;;;5062642;28;1165;-76
2022/01/07 10:07:55;;;;;;;;;;;;;;;;;;5064709;28;1200;-77
2022/01/07 10:10:24;;;;;;;;;;;;;;;;;;5047434;28;1110;-76
2022/01/07 10:12:56;;;;;;;;;;;;;;;;;;5033932;28;1304;-77
2022/01/07 10:15:23;;;;;;;;;;;;;;;;;;5066376;28;1274;-77
2022/01/07 10:17:59;;;;;;;;;;;;;;;;;;5063279;28;1272;-77
2022/01/07 10:20:27;;;;;;;;;;;;;;;;;;5064919;28;1959;-75
2022/01/07 10:22:55;;;;;;;;;;;;;;;;;;5082369;28;1231;-76
2022/01/07 10:25:31;;;;;;;;;;;;;;;;;;5084786;28;1148;-78
2022/01/07 10:28:18;;;;;;;;;;;;;;;;;;5079037;28;1013;-79
2022/01/07 10:30:44;;;;;;;;;;;;;;;;;;5082766;28;1032;-78
2022/01/07 10:33:33;;;;;;;;;;;;;;;;;;5064889;28;1199;-79
2022/01/07 10:36:07;;;;;;;;;;;;;;;;;;5064676;28;1322;-79
2022/01/07 10:38:34;;;;;;;;;;;;;;;;;;5063329;28;1894;-79
2022/01/07 10:40:59;;;;;;;;;;;;;;;;;;5064127;28;1203;-79
2022/01/07 10:43:35;;;;;;;;;;;;;;;;;;5064842;28;1152;-79
2022/01/07 10:46:14;;;;;;;;;;;;;;;;;;5081729;28;1161;-78
2022/01/07 10:48:53;;;;;;;;;;;;;;;;;;5064251;28;1197;-79
2022/01/07 10:51:38;;;;;;;;;;;;;;;;;;5084205;28;1130;-79
2022/01/07 10:54:05;;;;;;;;;;;;;;;;;;5083602;28;1200;-79
2022/01/07 10:56:51;;;;;;;;;;;;;;;;;;5078404;28;1212;-79
2022/01/07 10:59:18;;;;;;;;;;;;;;;;;;5066560;28;1956;-79
2022/01/07 11:01:44;;;;;;;;;;;;;;;;;;5065484;28;1210;-79
2022/01/07 11:04:14;;;;;;;;;;;;;;;;;;5084976;28;1192;-79
2022/01/07 11:06:40;;;;;;;;;;;;;;;;;;5063882;28;1254;-79
2022/01/07 11:09:09;;;;;;;;;;;;;;;;;;5049088;28;1198;-79
2022/01/07 11:11:39;;;;;;;;;;;;;;;;;;5061710;28;1180;-79
2022/01/07 11:14:06;;;;;;;;;;;;;;;;;;5064627;28;1305;-78
2022/01/07 11:16:36;;;;;;;;;;;;;;;;;;5062399;28;1165;-78
2022/01/07 11:19:01;;;;;;;;;;;;;;;;;;5085050;28;1922;-78
2022/01/07 11:21:33;;;;;;;;;;;;;;;;;;5049291;28;1176;-79
2022/01/07 11:23:59;;;;;;;;;;;;;;;;;;5083680;28;1144;-80
2022/01/07 11:26:24;;;;;;;;;;;;;;;;;;5062624;28;1129;-79
2022/01/07 11:29:00;;;;;;;;;;;;;;;;;;5047036;28;1347;-78
2022/01/07 11:31:26;;;;;;;;;;;;;;;;;;5083500;28;1140;-79
2022/01/07 11:34:10;;;;;;;;;;;;;;;;;;5046784;28;1336;-80
2022/01/07 11:36:39;;;;;;;;;;;;;;;;;;5080891;28;1037;-78
2022/01/07 11:39:06;;;;;;;;;;;;;;;;;;5063156;28;1948;-79
2022/01/07 11:41:44;;;;;;;;;;;;;;;;;;5043158;28;1219;-78
2022/01/07 11:44:33;;;;;;;;;;;;;;;;;;5086937;28;1089;-79
2022/01/07 11:47:19;;;;;;;;;;;;;;;;;;5058488;28;1468;-79
2022/01/07 11:49:44;;;;;;;;;;;;;;;;;;5065026;28;1189;-80
2022/01/07 11:52:29;;;;;;;;;;;;;;;;;;5065822;28;1133;-80
2022/01/07 11:55:13;;;;;;;;;;;;;;;;;;5067005;28;1210;-78
2022/01/07 11:57:49;;;;;;;;;;;;;;;;;;5082240;28;1181;-79
2022/01/07 12:00:14;;;;;;;;;;;;;;;;;;5086515;28;1929;-79
2022/01/07 12:02:58;;;;;;;;;;;;;;;;;;5046515;28;1173;-78
2022/01/07 12:05:56;;;;;;;;;;;;;;;;;;5067751;28;1315;-78
2022/01/07 12:08:40;;;;;;;;;;;;;;;;;;5083667;28;1177;-79
2022/01/07 12:11:09;;;;;;;;;;;;;;;;;;5066076;28;1378;-77
2022/01/07 12:13:38;;;;;;;;;;;;;;;;;;5049894;28;1149;-78
2022/01/07 12:16:05;;;;;;;;;;;;;;;;;;5049024;28;1225;-78
2022/01/07 12:18:37;;;;;;;;;;;;;;;;;;5067333;28;1977;-78
2022/01/07 12:21:02;;;;;;;;;;;;;;;;;;5067572;28;1349;-79
2022/01/07 12:23:27;;;;;;;;;;;;;;;;;;5050779;28;1153;-78
2022/01/07 12:26:01;;;;;;;;;;;;;;;;;;5082974;28;1177;-79
2022/01/07 12:28:26;;;;;;;;;;;;;;;;;;5065316;28;1157;-79
2022/01/07 12:31:04;;;;;;;;;;;;;;;;;;5049230;28;1221;-79
2022/01/07 12:33:29;;;;;;;;;;;;;;;;;;5065928;28;1125;-79
2022/01/07 12:35:55;;;;;;;;;;;;;;;;;;5044022;28;1243;-79
2022/01/07 12:38:22;;;;;;;;;;;;;;;;;;5048597;28;1965;-79
2022/01/07 12:41:00;;;;;;;;;;;;;;;;;;5048730;28;1273;-79
2022/01/07 12:43:40;;;;;;;;;;;;;;;;;;5062283;28;1486;-79
2022/01/07 12:46:06;;;;;;;;;;;;;;;;;;5065839;28;1224;-79
2022/01/07 12:48:40;;;;;;;;;;;;;;;;;;5067332;28;1242;-76
2022/01/07 12:51:06;;;;;;;;;;;;;;;;;;5066916;28;1523;-78
2022/01/07 12:53:32;;;;;;;;;;;;;;;;;;5084364;28;1122;-78
2022/01/07 12:56:16;;;;;;;;;;;;;;;;;;5063708;28;1216;-78
2022/01/07 12:58:44;;;;;;;;;;;;;;;;;;5062527;28;1902;-79
2022/01/07 13:01:20;;;;;;;;;;;;;;;;;;5065498;28;1161;-78
2022/01/07 13:03:46;;;;;;;;;;;;;;;;;;5066164;28;1074;-79
2022/01/07 13:06:11;;;;;;;;;;;;;;;;;;5067412;28;1102;-78
2022/01/07 13:08:39;;;;;;;;;;;;;;;;;;5067133;28;1204;-79
2022/01/07 13:11:05;;;;;;;;;;;;;;;;;;5063687;28;1272;-79
2022/01/07 13:13:30;;;;;;;;;;;;;;;;;;5064777;28;1154;-78
2022/01/07 13:15:59;;;;;;;;;;;;;;;;;;5063917;28;1403;-78
2022/01/07 13:18:34;;;;;;;;;;;;;;;;;;5056298;28;1905;-79
2022/01/07 13:21:06;;;;;;;;;;;;;;;;;;5070066;28;1341;-79
2022/01/07 13:23:45;;;;;;;;;;;;;;;;;;5067402;28;1270;-78
2022/01/07 13:26:11;;;;;;;;;;;;;;;;;;5083801;28;1092;-79
2022/01/07 13:28:37;;;;;;;;;;;;;;;;;;5083654;28;1199;-78
2022/01/07 13:31:02;;;;;;;;;;;;;;;;;;5083016;28;1000;-79
2022/01/07 13:33:29;;;;;;;;;;;;;;;;;;5084925;28;1302;-79
2022/01/07 13:35:58;;;;;;;;;;;;;;;;;;5062871;28;1279;-79
2022/01/07 13:38:23;;;;;;;;;;;;;;;;;;5083556;28;1882;-79
2022/01/07 13:41:05;;;;;;;;;;;;;;;;;;5084648;28;1156;-79
2022/01/07 13:43:35;;;;;;;;;;;;;;;;;;5063995;28;1206;-78
2022/01/07 13:46:07;;;;;;;;;;;;;;;;;;5064355;28;1208;-78
2022/01/07 13:48:32;;;;;;;;;;;;;;;;;;5066112;28;1148;-78
2022/01/07 13:51:08;;;;;;;;;;;;;;;;;;5063189;28;1080;-79
2022/01/07 13:53:33;;;;;;;;;;;;;;;;;;5084348;28;1169;-78
2022/01/07 13:56:05;;;;;;;;;;;;;;;;;;5062579;28;1343;-78
2022/01/07 13:58:30;;;;;;;;;;;;;;;;;;5080045;28;1959;-77
2022/01/07 14:01:03;;;;;;;;;;;;;;;;;;5064243;28;1290;-77
2022/01/07 14:03:46;;;;;;;;;;;;;;;;;;5085810;28;1228;-77
2022/01/07 14:06:11;;;;;;;;;;;;;;;;;;5065403;28;1259;-79
2022/01/07 14:08:37;;;;;;;;;;;;;;;;;;5067297;28;1193;-78
2022/01/07 14:11:12;;;;;;;;;;;;;;;;;;5063118;28;1243;-78
2022/01/07 14:13:37;;;;;;;;;;;;;;;;;;5075519;28;1321;-79
2022/01/07 14:16:03;;;;;;;;;;;;;;;;;;5062943;28;1179;-79
2022/01/07 14:18:33;;;;;;;;;;;;;;;;;;5042398;28;1918;-79
2022/01/07 14:21:04;;;;;;;;;;;;;;;;;;5064291;28;1226;-79
2022/01/07 14:23:29;;;;;;;;;;;;;;;;;;5066600;28;1152;-79
2022/01/07 14:26:02;;;;;;;;;;;;;;;;;;5044266;28;1244;-78
2022/01/07 14:28:28;;;;;;;;;;;;;;;;;;5042537;28;1703;-78
2022/01/07 14:30:56;;;;;;;;;;;;;;;;;;5044006;28;1234;-78
2022/01/07 14:33:21;;;;;;;;;;;;;;;;;;5061586;28;1141;-80
2022/01/07 14:35:57;;;;;;;;;;;;;;;;;;5065676;28;1358;-79
2022/01/07 14:38:23;;;;;;;;;;;;;;;;;;5065294;28;1890;-79
2022/01/07 14:40:55;;;;;;;;;;;;;;;;;;5064495;28;1156;-79
2022/01/07 14:43:23;;;;;;;;;;;;;;;;;;5043483;28;1212;-78
2022/01/07 14:45:49;;;;;;;;;;;;;;;;;;5070324;28;1303;-79
2022/01/07 14:48:14;;;;;;;;;;;;;;;;;;5065060;28;1435;-80
2022/01/07 14:50:40;;;;;;;;;;;;;;;;;;5064082;28;1025;-79
2022/01/07 14:53:05;;;;;;;;;;;;;;;;;;5044151;28;1046;-80
2022/01/07 14:55:36;;;;;;;;;;;;;;;;;;5045730;28;1353;-78
2022/01/07 14:58:05;;;;;;;;;;;;;;;;;;5057385;28;1096;-78
2022/01/07 15:00:31;;;;;;;;;;;;;;;;;;5062337;28;1977;-79
2022/01/07 15:02:56;;;;;;;;;;;;;;;;;;5059171;28;1181;-78
2022/01/07 15:05:22;;;;;;;;;;;;;;;;;;5044977;28;1150;-79
2022/01/07 15:07:57;;;;;;;;;;;;;;;;;;5062828;28;1280;-78
2022/01/07 15:10:23;;;;;;;;;;;;;;;;;;5046184;28;1445;-80
2022/01/07 15:12:57;;;;;;;;;;;;;;;;;;5057809;28;1256;-80
2022/01/07 15:18:10;;;;;;;;;;;;;;;;;;5068493;28;1014;-78
2022/01/07 15:20:35;;;;;;;;;;;;;;;;;;5069714;28;1917;-78
2022/01/07 15:23:04;;;;;;;;;;;;;;;;;;5048357;28;1110;-80
2022/01/07 15:25:29;;;;;;;;;;;;;;;;;;5087395;28;1176;-78
2022/01/07 15:27:58;;;;;;;;;;;;;;;;;;5081903;28;1208;-78
2022/01/07 15:30:23;;;;;;;;;;;;;;;;;;5052753;28;1259;-78
2022/01/07 15:32:49;;;;;;;;;;;;;;;;;;5068732;28;1251;-79
2022/01/07 15:35:18;;;;;;;;;;;;;;;;;;5067231;28;1217;-79
2022/01/07 15:37:44;;;;;;;;;;;;;;;;;;5066930;28;1358;-79
2022/01/07 15:40:10;;;;;;;;;;;;;;;;;;5067644;28;1894;-79
2022/01/07 15:42:42;;;;;;;;;;;;;;;;;;5049637;28;1197;-79
2022/01/07 15:45:08;;;;;;;;;;;;;;;;;;5086086;28;1155;-78
2022/01/07 15:47:34;;;;;;;;;;;;;;;;;;5085199;28;1199;-79
2022/01/07 15:49:59;;;;;;;;;;;;;;;;;;5085747;28;1192;-78
2022/01/07 15:52:25;;;;;;;;;;;;;;;;;;5065862;28;1308;-78
2022/01/07 15:55:00;;;;;;;;;;;;;;;;;;5067979;28;1374;-78
2022/01/07 15:57:38;;;;;;;;;;;;;;;;;;5066157;28;1447;-78
2022/01/07 16:00:04;;;;;;;;;;;;;;;;;;5066850;28;1898;-79
2022/01/07 16:02:29;;;;;;;;;;;;;;;;;;5067464;28;1162;-79
2022/01/07 16:05:00;;;;;;;;;;;;;;;;;;5067006;28;1165;-79
2022/01/07 16:07:28;;;;;;;;;;;;;;;;;;5088052;28;1117;-78
2022/01/07 16:10:00;;;;;;;;;;;;;;;;;;5087060;28;1204;-77
2022/01/07 16:12:42;;;;;;;;;;;;;;;;;;5068835;28;1343;-80
2022/01/07 16:15:07;;;;;;;;;;;;;;;;;;5077257;28;1257;-78
2022/01/07 16:17:33;;;;;;;;;;;;;;;;;;5084840;28;1192;-78
2022/01/07 16:20:01;;;;;;;;;;;;;;;;;;5066776;28;1914;-78
2022/01/07 16:22:29;;;;;;;;;;;;;;;;;;5086605;28;1215;-79
2022/01/07 16:25:02;;;;;;;;;;;;;;;;;;5087262;28;1157;-78
2022/01/07 16:27:37;;;;;;;;;;;;;;;;;;5049090;28;1294;-79
2022/01/07 16:30:03;;;;;;;;;;;;;;;;;;5058305;28;1312;-79
2022/01/07 16:32:29;;;;;;;;;;;;;;;;;;5084843;28;1172;-79
2022/01/07 16:34:54;;;;;;;;;;;;;;;;;;5067654;28;1173;-79
2022/01/07 16:37:19;;;;;;;;;;;;;;;;;;5062573;28;1208;-78
2022/01/07 16:39:44;;;;;;;;;;;;;;;;;;5084913;28;1905;-79
2022/01/07 16:42:10;;;;;;;;;;;;;;;;;;5064270;28;1262;-79
2022/01/07 16:44:35;;;;;;;;;;;;;;;;;;5083102;28;1227;-79
2022/01/07 16:47:04;;;;;;;;;;;;;;;;;;5065081;28;1271;-80
2022/01/07 16:49:30;;;;;;;;;;;;;;;;;;5050730;28;1208;-79
2022/01/07 16:51:56;;;;;;;;;;;;;;;;;;5068055;28;1279;-80
2022/01/07 16:54:21;;;;;;;;;;;;;;;;;;5082875;28;1176;-79
2022/01/07 16:56:49;;;;;;;;;;;;;;;;;;5084068;28;1176;-79
2022/01/07 16:59:15;;;;;;;;;;;;;;;;;;5081576;28;1874;-80
2022/01/07 17:01:40;;;;;;;;;;;;;;;;;;5050373;28;1427;-79
2022/01/07 17:04:05;;;;;;;;;;;;;;;;;;5065899;28;1253;-79
2022/01/07 17:06:31;;;;;;;;;;;;;;;;;;5084555;28;1180;-79
2022/01/07 17:08:56;;;;;;;;;;;;;;;;;;5067478;28;1207;-79
2022/01/07 17:11:21;;;;;;;;;;;;;;;;;;5063920;28;1191;-80
2022/01/07 17:13:53;;;;;;;;;;;;;;;;;;5080896;28;1177;-79
2022/01/07 17:16:19;;;;;;;;;;;;;;;;;;5063384;28;1137;-79
2022/01/07 17:18:44;;;;;;;;;;;;;;;;;;5049566;28;1907;-75
2022/01/07 17:21:09;;;;;;;;;;;;;;;;;;5043278;28;1287;-76